sensor_id;sensor_type;location;lat;lon;timestamp;P1;durP1;ratioP1;P2;durP2;ratioP2
35114;SDS011;21292;52.416;13.046;2023-03-19T00:01:03;30.27;;;16.48;;
35114;SDS011;21292;52.416;13.046;2023-03-19T00:03:34;22.17;;;15.20;;
35114;SDS011;21292;52.416;13.046;2023-03-19T00:06:04;25.80;;;14.98;;
35114;SDS011;21292;52.416;13.046;2023-03-19T00:08:33;23.50;;;15.18;;
35114;SDS011;21292;52.416;13.046;2023-03-19T00:11:04;24.58;;;13.80;;
35114;SDS011;21292;52.416;13.046;2023-03-19T00:13:33;26.42;;;14.60;;
35114;SDS011;21292;52.416;13.046;2023-03-19T00:16:01;26.83;;;15.18;;
35114;SDS011;21292;52.416;13.046;2023-03-19T00:18:30;24.42;;;13.68;;
35114;SDS011;21292;52.416;13.046;2023-03-19T00:20:59;24.05;;;15.25;;
35114;SDS011;21292;52.416;13.046;2023-03-19T00:23:28;25.75;;;14.95;;
35114;SDS011;21292;52.416;13.046;2023-03-19T00:25:57;24.70;;;15.15;;
35114;SDS011;21292;52.416;13.046;2023-03-19T00:28:25;22.75;;;13.57;;
35114;SDS011;21292;52.416;13.046;2023-03-19T00:30:53;24.98;;;13.65;;
35114;SDS011;21292;52.416;13.046;2023-03-19T00:33:22;24.58;;;13.90;;
35114;SDS011;21292;52.416;13.046;2023-03-19T00:35:51;22.90;;;13.25;;
35114;SDS011;21292;52.416;13.046;2023-03-19T00:38:20;22.75;;;14.05;;
35114;SDS011;21292;52.416;13.046;2023-03-19T00:40:49;23.25;;;14.27;;
35114;SDS011;21292;52.416;13.046;2023-03-19T00:43:17;19.95;;;12.85;;
35114;SDS011;21292;52.416;13.046;2023-03-19T00:45:46;23.75;;;13.57;;
35114;SDS011;21292;52.416;13.046;2023-03-19T00:48:14;24.60;;;13.77;;
35114;SDS011;21292;52.416;13.046;2023-03-19T00:50:45;23.23;;;13.65;;
35114;SDS011;21292;52.416;13.046;2023-03-19T00:53:13;26.63;;;13.93;;
35114;SDS011;21292;52.416;13.046;2023-03-19T00:55:42;20.98;;;12.82;;
35114;SDS011;21292;52.416;13.046;2023-03-19T00:58:11;27.70;;;14.55;;
35114;SDS011;21292;52.416;13.046;2023-03-19T01:00:39;23.40;;;14.27;;
35114;SDS011;21292;52.416;13.046;2023-03-19T01:03:07;21.38;;;13.27;;
35114;SDS011;21292;52.416;13.046;2023-03-19T01:05:36;29.88;;;14.85;;
35114;SDS011;21292;52.416;13.046;2023-03-19T01:08:07;21.45;;;13.60;;
35114;SDS011;21292;52.416;13.046;2023-03-19T01:10:35;25.48;;;13.65;;
35114;SDS011;21292;52.416;13.046;2023-03-19T01:13:06;20.90;;;13.55;;
35114;SDS011;21292;52.416;13.046;2023-03-19T01:15:34;24.05;;;13.15;;
35114;SDS011;21292;52.416;13.046;2023-03-19T01:18:03;23.95;;;13.82;;
35114;SDS011;21292;52.416;13.046;2023-03-19T01:20:31;22.00;;;13.30;;
35114;SDS011;21292;52.416;13.046;2023-03-19T01:23:00;20.40;;;13.38;;
35114;SDS011;21292;52.416;13.046;2023-03-19T01:25:28;20.15;;;12.60;;
35114;SDS011;21292;52.416;13.046;2023-03-19T01:27:57;20.73;;;13.45;;
35114;SDS011;21292;52.416;13.046;2023-03-19T01:30:28;23.15;;;13.20;;
35114;SDS011;21292;52.416;13.046;2023-03-19T01:32:56;20.67;;;14.10;;
35114;SDS011;21292;52.416;13.046;2023-03-19T01:35:24;25.13;;;14.15;;
35114;SDS011;21292;52.416;13.046;2023-03-19T01:37:55;21.20;;;13.10;;
35114;SDS011;21292;52.416;13.046;2023-03-19T01:40:24;21.70;;;13.30;;
35114;SDS011;21292;52.416;13.046;2023-03-19T01:42:53;25.17;;;14.07;;
35114;SDS011;21292;52.416;13.046;2023-03-19T01:45:41;22.38;;;13.75;;
35114;SDS011;21292;52.416;13.046;2023-03-19T01:48:15;21.63;;;12.40;;
35114;SDS011;21292;52.416;13.046;2023-03-19T01:50:46;28.10;;;14.02;;
35114;SDS011;21292;52.416;13.046;2023-03-19T01:53:20;20.75;;;13.75;;
35114;SDS011;21292;52.416;13.046;2023-03-19T01:55:51;26.67;;;14.40;;
35114;SDS011;21292;52.416;13.046;2023-03-19T02:00:53;22.50;;;13.57;;
35114;SDS011;21292;52.416;13.046;2023-03-19T02:03:22;26.08;;;15.07;;
35114;SDS011;21292;52.416;13.046;2023-03-19T02:05:51;28.58;;;14.00;;
35114;SDS011;21292;52.416;13.046;2023-03-19T02:08:20;27.70;;;14.65;;
35114;SDS011;21292;52.416;13.046;2023-03-19T02:10:49;22.70;;;13.68;;
35114;SDS011;21292;52.416;13.046;2023-03-19T02:13:19;24.08;;;13.85;;
35114;SDS011;21292;52.416;13.046;2023-03-19T02:15:48;23.80;;;14.30;;
35114;SDS011;21292;52.416;13.046;2023-03-19T02:18:18;21.83;;;14.35;;
35114;SDS011;21292;52.416;13.046;2023-03-19T02:20:48;25.05;;;14.20;;
35114;SDS011;21292;52.416;13.046;2023-03-19T02:23:20;24.43;;;14.50;;
35114;SDS011;21292;52.416;13.046;2023-03-19T02:26:02;23.02;;;15.32;;
35114;SDS011;21292;52.416;13.046;2023-03-19T02:28:32;26.92;;;14.25;;
35114;SDS011;21292;52.416;13.046;2023-03-19T02:31:02;26.15;;;15.48;;
35114;SDS011;21292;52.416;13.046;2023-03-19T02:33:30;25.45;;;15.95;;
35114;SDS011;21292;52.416;13.046;2023-03-19T02:35:59;29.13;;;15.75;;
35114;SDS011;21292;52.416;13.046;2023-03-19T02:38:30;25.23;;;15.77;;
35114;SDS011;21292;52.416;13.046;2023-03-19T02:41:02;26.05;;;15.55;;
35114;SDS011;21292;52.416;13.046;2023-03-19T02:43:32;26.08;;;15.07;;
35114;SDS011;21292;52.416;13.046;2023-03-19T02:46:01;25.05;;;13.52;;
35114;SDS011;21292;52.416;13.046;2023-03-19T02:48:31;22.02;;;13.77;;
35114;SDS011;21292;52.416;13.046;2023-03-19T02:51:00;22.17;;;14.68;;
35114;SDS011;21292;52.416;13.046;2023-03-19T02:53:28;26.58;;;13.98;;
35114;SDS011;21292;52.416;13.046;2023-03-19T02:55:57;24.20;;;14.80;;
35114;SDS011;21292;52.416;13.046;2023-03-19T02:58:26;26.70;;;15.63;;
35114;SDS011;21292;52.416;13.046;2023-03-19T03:00:54;27.58;;;14.85;;
35114;SDS011;21292;52.416;13.046;2023-03-19T03:03:23;21.92;;;14.70;;
35114;SDS011;21292;52.416;13.046;2023-03-19T03:05:52;27.65;;;15.40;;
35114;SDS011;21292;52.416;13.046;2023-03-19T03:08:22;26.02;;;15.27;;
35114;SDS011;21292;52.416;13.046;2023-03-19T03:10:50;24.95;;;14.77;;
35114;SDS011;21292;52.416;13.046;2023-03-19T03:13:19;26.90;;;15.73;;
35114;SDS011;21292;52.416;13.046;2023-03-19T03:15:48;23.73;;;15.55;;
35114;SDS011;21292;52.416;13.046;2023-03-19T03:18:17;26.50;;;15.48;;
35114;SDS011;21292;52.416;13.046;2023-03-19T03:20:46;22.67;;;14.23;;
35114;SDS011;21292;52.416;13.046;2023-03-19T03:23:14;21.92;;;14.32;;
35114;SDS011;21292;52.416;13.046;2023-03-19T03:25:43;22.73;;;14.23;;
35114;SDS011;21292;52.416;13.046;2023-03-19T03:28:11;28.55;;;16.95;;
35114;SDS011;21292;52.416;13.046;2023-03-19T03:30:39;26.08;;;15.45;;
35114;SDS011;21292;52.416;13.046;2023-03-19T03:33:09;24.92;;;16.15;;
35114;SDS011;21292;52.416;13.046;2023-03-19T03:35:37;29.52;;;16.50;;
35114;SDS011;21292;52.416;13.046;2023-03-19T03:38:06;28.13;;;16.50;;
35114;SDS011;21292;52.416;13.046;2023-03-19T03:40:34;24.65;;;15.95;;
35114;SDS011;21292;52.416;13.046;2023-03-19T03:43:02;24.02;;;15.82;;
35114;SDS011;21292;52.416;13.046;2023-03-19T03:45:31;27.63;;;17.13;;
35114;SDS011;21292;52.416;13.046;2023-03-19T03:47:59;27.98;;;16.33;;
35114;SDS011;21292;52.416;13.046;2023-03-19T03:50:29;26.67;;;15.77;;
35114;SDS011;21292;52.416;13.046;2023-03-19T03:52:57;30.08;;;17.80;;
35114;SDS011;21292;52.416;13.046;2023-03-19T03:55:26;29.23;;;16.50;;
35114;SDS011;21292;52.416;13.046;2023-03-19T03:57:56;24.77;;;16.20;;
35114;SDS011;21292;52.416;13.046;2023-03-19T04:00:25;33.05;;;16.65;;
35114;SDS011;21292;52.416;13.046;2023-03-19T04:02:53;25.15;;;16.40;;
35114;SDS011;21292;52.416;13.046;2023-03-19T04:05:21;27.58;;;17.45;;
35114;SDS011;21292;52.416;13.046;2023-03-19T04:07:51;31.27;;;16.95;;
35114;SDS011;21292;52.416;13.046;2023-03-19T04:10:19;35.10;;;17.13;;
35114;SDS011;21292;52.416;13.046;2023-03-19T04:12:47;25.77;;;16.58;;
35114;SDS011;21292;52.416;13.046;2023-03-19T04:15:16;26.67;;;16.02;;
35114;SDS011;21292;52.416;13.046;2023-03-19T04:17:46;29.00;;;17.02;;
35114;SDS011;21292;52.416;13.046;2023-03-19T04:20:14;32.80;;;17.38;;
35114;SDS011;21292;52.416;13.046;2023-03-19T04:22:47;26.45;;;17.65;;
35114;SDS011;21292;52.416;13.046;2023-03-19T04:25:17;24.42;;;15.45;;
35114;SDS011;21292;52.416;13.046;2023-03-19T04:27:45;32.28;;;17.95;;
35114;SDS011;21292;52.416;13.046;2023-03-19T04:30:13;27.40;;;16.60;;
35114;SDS011;21292;52.416;13.046;2023-03-19T04:32:42;28.42;;;17.30;;
35114;SDS011;21292;52.416;13.046;2023-03-19T04:35:10;28.92;;;16.58;;
35114;SDS011;21292;52.416;13.046;2023-03-19T04:37:39;30.85;;;17.42;;
35114;SDS011;21292;52.416;13.046;2023-03-19T04:40:09;30.27;;;16.85;;
35114;SDS011;21292;52.416;13.046;2023-03-19T04:42:40;28.95;;;16.23;;
35114;SDS011;21292;52.416;13.046;2023-03-19T04:45:10;30.77;;;18.52;;
35114;SDS011;21292;52.416;13.046;2023-03-19T04:47:39;29.27;;;17.73;;
35114;SDS011;21292;52.416;13.046;2023-03-19T04:50:09;30.08;;;18.27;;
35114;SDS011;21292;52.416;13.046;2023-03-19T04:52:38;30.95;;;18.33;;
35114;SDS011;21292;52.416;13.046;2023-03-19T04:55:07;38.35;;;19.45;;
35114;SDS011;21292;52.416;13.046;2023-03-19T04:57:36;35.70;;;18.88;;
35114;SDS011;21292;52.416;13.046;2023-03-19T05:00:08;31.75;;;19.25;;
35114;SDS011;21292;52.416;13.046;2023-03-19T05:02:37;34.97;;;20.40;;
35114;SDS011;21292;52.416;13.046;2023-03-19T05:05:06;34.70;;;21.00;;
35114;SDS011;21292;52.416;13.046;2023-03-19T05:07:36;36.92;;;21.15;;
35114;SDS011;21292;52.416;13.046;2023-03-19T05:10:05;35.55;;;20.17;;
35114;SDS011;21292;52.416;13.046;2023-03-19T05:12:35;33.45;;;19.23;;
35114;SDS011;21292;52.416;13.046;2023-03-19T05:15:03;36.47;;;20.77;;
35114;SDS011;21292;52.416;13.046;2023-03-19T05:17:34;33.58;;;19.92;;
35114;SDS011;21292;52.416;13.046;2023-03-19T05:20:02;31.38;;;20.83;;
35114;SDS011;21292;52.416;13.046;2023-03-19T05:22:31;32.53;;;21.05;;
35114;SDS011;21292;52.416;13.046;2023-03-19T05:25:00;31.50;;;19.85;;
35114;SDS011;21292;52.416;13.046;2023-03-19T05:27:28;30.08;;;20.77;;
35114;SDS011;21292;52.416;13.046;2023-03-19T05:29:56;33.47;;;21.17;;
35114;SDS011;21292;52.416;13.046;2023-03-19T05:32:25;33.95;;;19.10;;
35114;SDS011;21292;52.416;13.046;2023-03-19T05:34:55;33.25;;;20.40;;
35114;SDS011;21292;52.416;13.046;2023-03-19T05:37:24;37.00;;;21.70;;
35114;SDS011;21292;52.416;13.046;2023-03-19T05:39:53;37.10;;;20.90;;
35114;SDS011;21292;52.416;13.046;2023-03-19T05:42:21;31.60;;;21.17;;
35114;SDS011;21292;52.416;13.046;2023-03-19T05:44:49;34.47;;;20.55;;
35114;SDS011;21292;52.416;13.046;2023-03-19T05:47:18;32.72;;;19.88;;
35114;SDS011;21292;52.416;13.046;2023-03-19T05:49:47;33.42;;;20.60;;
35114;SDS011;21292;52.416;13.046;2023-03-19T05:52:16;38.97;;;20.80;;
35114;SDS011;21292;52.416;13.046;2023-03-19T05:54:44;35.60;;;21.52;;
35114;SDS011;21292;52.416;13.046;2023-03-19T05:57:15;34.80;;;21.73;;
35114;SDS011;21292;52.416;13.046;2023-03-19T05:59:44;36.20;;;21.67;;
35114;SDS011;21292;52.416;13.046;2023-03-19T06:02:12;40.75;;;23.33;;
35114;SDS011;21292;52.416;13.046;2023-03-19T06:04:40;37.95;;;22.58;;
35114;SDS011;21292;52.416;13.046;2023-03-19T06:07:10;37.60;;;21.80;;
35114;SDS011;21292;52.416;13.046;2023-03-19T06:09:40;35.42;;;22.17;;
35114;SDS011;21292;52.416;13.046;2023-03-19T06:12:08;40.85;;;21.80;;
35114;SDS011;21292;52.416;13.046;2023-03-19T06:14:37;36.60;;;21.05;;
35114;SDS011;21292;52.416;13.046;2023-03-19T06:17:05;37.35;;;21.73;;
35114;SDS011;21292;52.416;13.046;2023-03-19T06:19:34;38.22;;;22.10;;
35114;SDS011;21292;52.416;13.046;2023-03-19T06:22:06;39.88;;;22.30;;
35114;SDS011;21292;52.416;13.046;2023-03-19T06:24:34;40.97;;;24.20;;
35114;SDS011;21292;52.416;13.046;2023-03-19T06:27:06;44.53;;;26.85;;
35114;SDS011;21292;52.416;13.046;2023-03-19T06:29:35;44.55;;;27.60;;
35114;SDS011;21292;52.416;13.046;2023-03-19T06:32:04;43.00;;;26.60;;
35114;SDS011;21292;52.416;13.046;2023-03-19T06:34:33;51.25;;;28.45;;
35114;SDS011;21292;52.416;13.046;2023-03-19T06:37:01;44.42;;;28.00;;
35114;SDS011;21292;52.416;13.046;2023-03-19T06:39:30;53.47;;;30.10;;
35114;SDS011;21292;52.416;13.046;2023-03-19T06:42:00;48.97;;;29.20;;
35114;SDS011;21292;52.416;13.046;2023-03-19T06:44:31;48.65;;;30.63;;
35114;SDS011;21292;52.416;13.046;2023-03-19T06:47:02;48.83;;;31.73;;
35114;SDS011;21292;52.416;13.046;2023-03-19T06:49:31;52.95;;;31.10;;
35114;SDS011;21292;52.416;13.046;2023-03-19T06:51:59;48.22;;;28.50;;
35114;SDS011;21292;52.416;13.046;2023-03-19T06:54:27;46.55;;;28.90;;
35114;SDS011;21292;52.416;13.046;2023-03-19T06:56:56;50.38;;;28.77;;
35114;SDS011;21292;52.416;13.046;2023-03-19T06:59:25;49.55;;;27.80;;
35114;SDS011;21292;52.416;13.046;2023-03-19T07:01:56;47.85;;;29.58;;
35114;SDS011;21292;52.416;13.046;2023-03-19T07:04:25;52.55;;;30.10;;
35114;SDS011;21292;52.416;13.046;2023-03-19T07:06:54;47.05;;;29.05;;
35114;SDS011;21292;52.416;13.046;2023-03-19T07:09:25;50.58;;;30.45;;
35114;SDS011;21292;52.416;13.046;2023-03-19T07:11:54;50.33;;;32.97;;
35114;SDS011;21292;52.416;13.046;2023-03-19T07:14:25;56.85;;;33.22;;
35114;SDS011;21292;52.416;13.046;2023-03-19T07:16:53;54.17;;;32.95;;
35114;SDS011;21292;52.416;13.046;2023-03-19T07:21:56;57.85;;;33.92;;
35114;SDS011;21292;52.416;13.046;2023-03-19T07:24:25;60.88;;;34.58;;
35114;SDS011;21292;52.416;13.046;2023-03-19T07:26:53;53.58;;;34.22;;
35114;SDS011;21292;52.416;13.046;2023-03-19T07:29:23;58.45;;;34.78;;
35114;SDS011;21292;52.416;13.046;2023-03-19T07:31:52;57.83;;;33.42;;
35114;SDS011;21292;52.416;13.046;2023-03-19T07:34:21;51.58;;;33.85;;
35114;SDS011;21292;52.416;13.046;2023-03-19T07:36:50;58.95;;;33.42;;
35114;SDS011;21292;52.416;13.046;2023-03-19T07:39:20;52.38;;;31.40;;
35114;SDS011;21292;52.416;13.046;2023-03-19T07:41:48;46.65;;;30.30;;
35114;SDS011;21292;52.416;13.046;2023-03-19T07:44:16;48.85;;;28.60;;
35114;SDS011;21292;52.416;13.046;2023-03-19T07:46:45;45.42;;;28.63;;
35114;SDS011;21292;52.416;13.046;2023-03-19T07:49:13;51.83;;;29.58;;
35114;SDS011;21292;52.416;13.046;2023-03-19T07:51:42;43.38;;;30.40;;
35114;SDS011;21292;52.416;13.046;2023-03-19T07:54:15;47.55;;;28.55;;
35114;SDS011;21292;52.416;13.046;2023-03-19T07:56:45;50.00;;;29.20;;
35114;SDS011;21292;52.416;13.046;2023-03-19T07:59:13;50.05;;;29.77;;
35114;SDS011;21292;52.416;13.046;2023-03-19T08:01:43;42.55;;;28.58;;
35114;SDS011;21292;52.416;13.046;2023-03-19T08:04:11;45.45;;;28.63;;
35114;SDS011;21292;52.416;13.046;2023-03-19T08:06:41;53.70;;;30.65;;
35114;SDS011;21292;52.416;13.046;2023-03-19T08:09:09;50.13;;;29.55;;
35114;SDS011;21292;52.416;13.046;2023-03-19T08:11:39;46.40;;;29.00;;
35114;SDS011;21292;52.416;13.046;2023-03-19T08:14:07;48.55;;;31.73;;
35114;SDS011;21292;52.416;13.046;2023-03-19T08:16:36;48.97;;;30.80;;
35114;SDS011;21292;52.416;13.046;2023-03-19T08:19:05;55.78;;;33.67;;
35114;SDS011;21292;52.416;13.046;2023-03-19T08:21:33;54.55;;;33.30;;
35114;SDS011;21292;52.416;13.046;2023-03-19T08:24:04;51.95;;;32.83;;
35114;SDS011;21292;52.416;13.046;2023-03-19T08:26:33;48.85;;;32.53;;
35114;SDS011;21292;52.416;13.046;2023-03-19T08:29:04;56.05;;;32.55;;
35114;SDS011;21292;52.416;13.046;2023-03-19T08:31:36;50.70;;;31.33;;
35114;SDS011;21292;52.416;13.046;2023-03-19T08:34:04;57.53;;;35.15;;
35114;SDS011;21292;52.416;13.046;2023-03-19T08:36:36;54.38;;;32.95;;
35114;SDS011;21292;52.416;13.046;2023-03-19T08:39:04;56.08;;;32.22;;
35114;SDS011;21292;52.416;13.046;2023-03-19T08:41:32;54.03;;;32.75;;
35114;SDS011;21292;52.416;13.046;2023-03-19T08:44:00;58.80;;;33.97;;
35114;SDS011;21292;52.416;13.046;2023-03-19T08:46:29;55.83;;;33.25;;
35114;SDS011;21292;52.416;13.046;2023-03-19T08:48:59;43.75;;;28.80;;
35114;SDS011;21292;52.416;13.046;2023-03-19T08:51:29;50.17;;;30.00;;
35114;SDS011;21292;52.416;13.046;2023-03-19T08:53:58;52.08;;;30.88;;
35114;SDS011;21292;52.416;13.046;2023-03-19T08:56:26;48.53;;;30.15;;
35114;SDS011;21292;52.416;13.046;2023-03-19T08:58:55;47.95;;;30.67;;
35114;SDS011;21292;52.416;13.046;2023-03-19T09:01:32;48.25;;;28.65;;
35114;SDS011;21292;52.416;13.046;2023-03-19T09:04:01;48.33;;;27.60;;
35114;SDS011;21292;52.416;13.046;2023-03-19T09:06:29;43.03;;;28.20;;
35114;SDS011;21292;52.416;13.046;2023-03-19T09:09:00;40.70;;;26.90;;
35114;SDS011;21292;52.416;13.046;2023-03-19T09:11:28;40.78;;;23.95;;
35114;SDS011;21292;52.416;13.046;2023-03-19T09:13:57;43.92;;;27.20;;
35114;SDS011;21292;52.416;13.046;2023-03-19T09:16:25;40.20;;;26.92;;
35114;SDS011;21292;52.416;13.046;2023-03-19T09:18:55;39.63;;;26.38;;
35114;SDS011;21292;52.416;13.046;2023-03-19T09:21:25;32.70;;;23.00;;
35114;SDS011;21292;52.416;13.046;2023-03-19T09:23:53;36.25;;;21.20;;
35114;SDS011;21292;52.416;13.046;2023-03-19T09:26:22;30.55;;;20.75;;
35114;SDS011;21292;52.416;13.046;2023-03-19T09:28:50;26.75;;;18.50;;
35114;SDS011;21292;52.416;13.046;2023-03-19T09:31:18;33.15;;;19.92;;
35114;SDS011;21292;52.416;13.046;2023-03-19T09:33:47;30.15;;;20.60;;
35114;SDS011;21292;52.416;13.046;2023-03-19T09:36:17;35.22;;;21.20;;
35114;SDS011;21292;52.416;13.046;2023-03-19T09:38:46;31.70;;;21.17;;
35114;SDS011;21292;52.416;13.046;2023-03-19T09:41:19;27.80;;;19.23;;
35114;SDS011;21292;52.416;13.046;2023-03-19T09:43:58;40.45;;;20.90;;
35114;SDS011;21292;52.416;13.046;2023-03-19T09:46:31;28.23;;;19.23;;
35114;SDS011;21292;52.416;13.046;2023-03-19T09:49:06;29.65;;;19.73;;
35114;SDS011;21292;52.416;13.046;2023-03-19T09:51:42;35.33;;;19.02;;
35114;SDS011;21292;52.416;13.046;2023-03-19T09:54:16;33.60;;;19.27;;
35114;SDS011;21292;52.416;13.046;2023-03-19T09:56:53;30.45;;;20.27;;
35114;SDS011;21292;52.416;13.046;2023-03-19T09:59:22;33.47;;;20.83;;
35114;SDS011;21292;52.416;13.046;2023-03-19T10:01:56;24.83;;;17.38;;
35114;SDS011;21292;52.416;13.046;2023-03-19T10:04:32;25.98;;;17.42;;
35114;SDS011;21292;52.416;13.046;2023-03-19T10:07:12;25.02;;;16.60;;
35114;SDS011;21292;52.416;13.046;2023-03-19T10:09:48;25.35;;;17.35;;
35114;SDS011;21292;52.416;13.046;2023-03-19T10:12:25;27.42;;;17.05;;
35114;SDS011;21292;52.416;13.046;2023-03-19T10:15:03;24.15;;;16.23;;
35114;SDS011;21292;52.416;13.046;2023-03-19T10:17:41;24.33;;;15.82;;
35114;SDS011;21292;52.416;13.046;2023-03-19T10:20:15;31.17;;;17.25;;
35114;SDS011;21292;52.416;13.046;2023-03-19T10:22:50;27.13;;;16.23;;
35114;SDS011;21292;52.416;13.046;2023-03-19T10:25:26;22.92;;;15.70;;
35114;SDS011;21292;52.416;13.046;2023-03-19T10:28:10;22.07;;;15.37;;
35114;SDS011;21292;52.416;13.046;2023-03-19T10:30:42;24.10;;;14.88;;
35114;SDS011;21292;52.416;13.046;2023-03-19T10:33:14;21.83;;;14.10;;
35114;SDS011;21292;52.416;13.046;2023-03-19T10:35:47;21.13;;;13.65;;
35114;SDS011;21292;52.416;13.046;2023-03-19T10:38:20;22.90;;;14.10;;
35114;SDS011;21292;52.416;13.046;2023-03-19T10:40:55;19.80;;;14.07;;
35114;SDS011;21292;52.416;13.046;2023-03-19T10:43:31;18.35;;;13.60;;
35114;SDS011;21292;52.416;13.046;2023-03-19T10:46:01;17.90;;;13.13;;
35114;SDS011;21292;52.416;13.046;2023-03-19T10:48:29;17.67;;;12.00;;
35114;SDS011;21292;52.416;13.046;2023-03-19T10:50:59;17.40;;;11.88;;
35114;SDS011;21292;52.416;13.046;2023-03-19T10:53:33;19.10;;;12.02;;
35114;SDS011;21292;52.416;13.046;2023-03-19T10:56:03;15.10;;;11.32;;
35114;SDS011;21292;52.416;13.046;2023-03-19T10:58:33;16.35;;;11.23;;
35114;SDS011;21292;52.416;13.046;2023-03-19T11:01:04;16.50;;;11.43;;
35114;SDS011;21292;52.416;13.046;2023-03-19T11:03:34;18.33;;;11.60;;
35114;SDS011;21292;52.416;13.046;2023-03-19T11:06:05;17.33;;;12.38;;
35114;SDS011;21292;52.416;13.046;2023-03-19T11:08:38;22.63;;;12.35;;
35114;SDS011;21292;52.416;13.046;2023-03-19T11:11:21;18.30;;;11.95;;
35114;SDS011;21292;52.416;13.046;2023-03-19T11:13:52;17.65;;;12.02;;
35114;SDS011;21292;52.416;13.046;2023-03-19T11:16:21;17.15;;;12.38;;
35114;SDS011;21292;52.416;13.046;2023-03-19T11:18:49;20.60;;;12.65;;
35114;SDS011;21292;52.416;13.046;2023-03-19T11:21:21;16.73;;;11.10;;
35114;SDS011;21292;52.416;13.046;2023-03-19T11:23:57;16.80;;;11.10;;
35114;SDS011;21292;52.416;13.046;2023-03-19T11:26:28;16.90;;;11.93;;
35114;SDS011;21292;52.416;13.046;2023-03-19T11:29:00;15.38;;;11.27;;
35114;SDS011;21292;52.416;13.046;2023-03-19T11:31:33;14.75;;;11.05;;
35114;SDS011;21292;52.416;13.046;2023-03-19T11:34:07;19.08;;;10.57;;
35114;SDS011;21292;52.416;13.046;2023-03-19T11:36:45;15.80;;;10.55;;
35114;SDS011;21292;52.416;13.046;2023-03-19T11:39:23;17.65;;;11.10;;
35114;SDS011;21292;52.416;13.046;2023-03-19T11:41:58;17.35;;;10.52;;
35114;SDS011;21292;52.416;13.046;2023-03-19T11:44:38;15.95;;;10.95;;
35114;SDS011;21292;52.416;13.046;2023-03-19T11:47:14;18.33;;;10.93;;
35114;SDS011;21292;52.416;13.046;2023-03-19T11:49:56;18.05;;;11.05;;
35114;SDS011;21292;52.416;13.046;2023-03-19T11:52:32;16.38;;;12.00;;
35114;SDS011;21292;52.416;13.046;2023-03-19T11:55:16;16.33;;;11.18;;
35114;SDS011;21292;52.416;13.046;2023-03-19T11:57:52;18.13;;;11.80;;
35114;SDS011;21292;52.416;13.046;2023-03-19T12:00:28;16.60;;;11.43;;
35114;SDS011;21292;52.416;13.046;2023-03-19T12:03:03;17.63;;;11.18;;
35114;SDS011;21292;52.416;13.046;2023-03-19T12:05:45;19.60;;;12.32;;
35114;SDS011;21292;52.416;13.046;2023-03-19T12:08:24;14.15;;;11.00;;
35114;SDS011;21292;52.416;13.046;2023-03-19T12:11:00;18.63;;;11.18;;
35114;SDS011;21292;52.416;13.046;2023-03-19T12:13:40;16.98;;;10.95;;
35114;SDS011;21292;52.416;13.046;2023-03-19T12:16:17;14.13;;;10.40;;
35114;SDS011;21292;52.416;13.046;2023-03-19T12:18:57;15.68;;;10.13;;
35114;SDS011;21292;52.416;13.046;2023-03-19T12:21:39;17.17;;;10.85;;
35114;SDS011;21292;52.416;13.046;2023-03-19T12:24:18;17.10;;;10.57;;
35114;SDS011;21292;52.416;13.046;2023-03-19T12:26:58;17.77;;;10.57;;
35114;SDS011;21292;52.416;13.046;2023-03-19T12:29:32;15.35;;;10.15;;
35114;SDS011;21292;52.416;13.046;2023-03-19T12:32:10;12.73;;;9.23;;
35114;SDS011;21292;52.416;13.046;2023-03-19T12:34:44;15.38;;;9.18;;
35114;SDS011;21292;52.416;13.046;2023-03-19T12:37:18;14.15;;;10.02;;
35114;SDS011;21292;52.416;13.046;2023-03-19T12:39:52;14.95;;;9.98;;
35114;SDS011;21292;52.416;13.046;2023-03-19T12:42:28;14.25;;;10.52;;
35114;SDS011;21292;52.416;13.046;2023-03-19T12:45:04;13.55;;;9.68;;
35114;SDS011;21292;52.416;13.046;2023-03-19T12:47:38;14.82;;;10.15;;
35114;SDS011;21292;52.416;13.046;2023-03-19T12:50:07;16.20;;;10.40;;
35114;SDS011;21292;52.416;13.046;2023-03-19T12:52:38;17.27;;;10.70;;
35114;SDS011;21292;52.416;13.046;2023-03-19T12:55:11;14.38;;;9.88;;
35114;SDS011;21292;52.416;13.046;2023-03-19T12:57:53;16.02;;;9.63;;
35114;SDS011;21292;52.416;13.046;2023-03-19T13:00:25;14.27;;;10.07;;
35114;SDS011;21292;52.416;13.046;2023-03-19T13:02:58;13.07;;;9.00;;
35114;SDS011;21292;52.416;13.046;2023-03-19T13:05:44;16.55;;;9.13;;
35114;SDS011;21292;52.416;13.046;2023-03-19T13:08:15;13.88;;;9.45;;
35114;SDS011;21292;52.416;13.046;2023-03-19T13:10:46;12.75;;;9.40;;
35114;SDS011;21292;52.416;13.046;2023-03-19T13:13:23;14.18;;;9.30;;
35114;SDS011;21292;52.416;13.046;2023-03-19T13:15:57;12.63;;;8.68;;
35114;SDS011;21292;52.416;13.046;2023-03-19T13:18:30;13.68;;;8.77;;
35114;SDS011;21292;52.416;13.046;2023-03-19T13:21:09;13.05;;;8.93;;
35114;SDS011;21292;52.416;13.046;2023-03-19T13:23:45;16.00;;;10.15;;
35114;SDS011;21292;52.416;13.046;2023-03-19T13:26:15;14.02;;;9.40;;
35114;SDS011;21292;52.416;13.046;2023-03-19T13:28:58;12.80;;;8.90;;
35114;SDS011;21292;52.416;13.046;2023-03-19T13:31:32;12.52;;;8.80;;
35114;SDS011;21292;52.416;13.046;2023-03-19T13:34:03;17.23;;;9.63;;
35114;SDS011;21292;52.416;13.046;2023-03-19T13:36:35;13.70;;;8.00;;
35114;SDS011;21292;52.416;13.046;2023-03-19T13:39:10;12.10;;;8.43;;
35114;SDS011;21292;52.416;13.046;2023-03-19T13:41:47;10.63;;;7.75;;
35114;SDS011;21292;52.416;13.046;2023-03-19T13:44:26;12.65;;;8.32;;
35114;SDS011;21292;52.416;13.046;2023-03-19T13:46:56;11.82;;;7.22;;
35114;SDS011;21292;52.416;13.046;2023-03-19T13:49:29;16.77;;;9.20;;
35114;SDS011;21292;52.416;13.046;2023-03-19T13:52:09;10.23;;;6.93;;
35114;SDS011;21292;52.416;13.046;2023-03-19T13:55:29;11.52;;;7.50;;
35114;SDS011;21292;52.416;13.046;2023-03-19T13:58:12;14.07;;;7.78;;
35114;SDS011;21292;52.416;13.046;2023-03-19T14:01:04;35.47;;;22.55;;
35114;SDS011;21292;52.416;13.046;2023-03-19T14:03:39;37.47;;;25.40;;
35114;SDS011;21292;52.416;13.046;2023-03-19T14:08:53;10.98;;;8.10;;
35114;SDS011;21292;52.416;13.046;2023-03-19T14:11:23;13.13;;;7.70;;
35114;SDS011;21292;52.416;13.046;2023-03-19T14:13:58;10.68;;;7.90;;
35114;SDS011;21292;52.416;13.046;2023-03-19T14:16:30;13.35;;;8.20;;
35114;SDS011;21292;52.416;13.046;2023-03-19T14:19:02;12.38;;;8.05;;
35114;SDS011;21292;52.416;13.046;2023-03-19T14:21:39;10.40;;;8.05;;
35114;SDS011;21292;52.416;13.046;2023-03-19T14:24:19;11.05;;;8.43;;
35114;SDS011;21292;52.416;13.046;2023-03-19T14:27:17;11.52;;;7.78;;
35114;SDS011;21292;52.416;13.046;2023-03-19T14:29:51;12.20;;;7.53;;
35114;SDS011;21292;52.416;13.046;2023-03-19T14:32:23;13.55;;;8.50;;
35114;SDS011;21292;52.416;13.046;2023-03-19T14:34:52;11.88;;;8.02;;
35114;SDS011;21292;52.416;13.046;2023-03-19T14:37:22;9.20;;;7.00;;
35114;SDS011;21292;52.416;13.046;2023-03-19T14:39:54;9.88;;;7.28;;
35114;SDS011;21292;52.416;13.046;2023-03-19T14:42:29;12.30;;;7.47;;